sensor_id;sensor_type;location;lat;lon;timestamp;P1;durP1;ratioP1;P2;durP2;ratioP2
74967;SDS011;63523;51.880;12.630;2023-01-29T00:01:09;9.73;;;4.13;;
74967;SDS011;63523;51.880;12.630;2023-01-29T00:03:35;8.40;;;3.33;;
74967;SDS011;63523;51.880;12.630;2023-01-29T00:06:04;10.35;;;3.78;;
74967;SDS011;63523;51.880;12.630;2023-01-29T00:08:34;9.32;;;3.90;;
74967;SDS011;63523;51.880;12.630;2023-01-29T00:11:02;8.60;;;3.60;;
74967;SDS011;63523;51.880;12.630;2023-01-29T00:13:28;7.70;;;3.25;;
74967;SDS011;63523;51.880;12.630;2023-01-29T00:15:55;9.07;;;3.47;;
74967;SDS011;63523;51.880;12.630;2023-01-29T00:18:21;10.80;;;3.90;;
74967;SDS011;63523;51.880;12.630;2023-01-29T00:20:47;9.02;;;3.60;;
74967;SDS011;63523;51.880;12.630;2023-01-29T00:23:13;11.97;;;3.90;;
74967;SDS011;63523;51.880;12.630;2023-01-29T00:25:39;8.70;;;3.22;;
74967;SDS011;63523;51.880;12.630;2023-01-29T00:28:05;9.88;;;3.47;;
74967;SDS011;63523;51.880;12.630;2023-01-29T00:30:31;8.33;;;3.60;;
74967;SDS011;63523;51.880;12.630;2023-01-29T00:32:59;9.43;;;3.60;;
74967;SDS011;63523;51.880;12.630;2023-01-29T00:35:25;10.05;;;3.47;;
74967;SDS011;63523;51.880;12.630;2023-01-29T00:37:50;9.05;;;3.65;;
74967;SDS011;63523;51.880;12.630;2023-01-29T00:40:16;8.60;;;3.47;;
74967;SDS011;63523;51.880;12.630;2023-01-29T00:42:43;9.73;;;3.50;;
74967;SDS011;63523;51.880;12.630;2023-01-29T00:45:27;8.95;;;3.25;;
74967;SDS011;63523;51.880;12.630;2023-01-29T00:47:53;10.57;;;3.30;;
74967;SDS011;63523;51.880;12.630;2023-01-29T00:50:18;8.43;;;3.03;;
74967;SDS011;63523;51.880;12.630;2023-01-29T00:52:44;9.20;;;3.90;;
74967;SDS011;63523;51.880;12.630;2023-01-29T00:55:10;8.73;;;3.83;;
74967;SDS011;63523;51.880;12.630;2023-01-29T00:57:36;8.52;;;3.58;;
74967;SDS011;63523;51.880;12.630;2023-01-29T01:00:03;11.50;;;3.38;;
74967;SDS011;63523;51.880;12.630;2023-01-29T01:02:33;10.13;;;3.38;;
74967;SDS011;63523;51.880;12.630;2023-01-29T01:05:17;11.18;;;3.70;;
74967;SDS011;63523;51.880;12.630;2023-01-29T01:07:44;9.27;;;3.60;;
74967;SDS011;63523;51.880;12.630;2023-01-29T01:10:18;9.65;;;3.60;;
74967;SDS011;63523;51.880;12.630;2023-01-29T01:12:47;10.27;;;3.50;;
74967;SDS011;63523;51.880;12.630;2023-01-29T01:15:15;8.65;;;3.50;;
74967;SDS011;63523;51.880;12.630;2023-01-29T01:17:41;7.53;;;2.83;;
74967;SDS011;63523;51.880;12.630;2023-01-29T01:20:06;8.50;;;3.10;;
74967;SDS011;63523;51.880;12.630;2023-01-29T01:22:32;8.45;;;3.30;;
74967;SDS011;63523;51.880;12.630;2023-01-29T01:24:58;10.63;;;3.63;;
74967;SDS011;63523;51.880;12.630;2023-01-29T01:27:23;7.63;;;3.07;;
74967;SDS011;63523;51.880;12.630;2023-01-29T01:29:49;8.15;;;3.20;;
74967;SDS011;63523;51.880;12.630;2023-01-29T01:32:15;8.83;;;2.97;;
74967;SDS011;63523;51.880;12.630;2023-01-29T01:34:40;10.15;;;3.17;;
74967;SDS011;63523;51.880;12.630;2023-01-29T01:37:06;9.57;;;3.45;;
74967;SDS011;63523;51.880;12.630;2023-01-29T01:39:31;8.60;;;3.43;;
74967;SDS011;63523;51.880;12.630;2023-01-29T01:41:57;8.10;;;3.00;;
74967;SDS011;63523;51.880;12.630;2023-01-29T01:47:30;8.45;;;2.50;;
74967;SDS011;63523;51.880;12.630;2023-01-29T01:50:02;8.48;;;3.10;;
74967;SDS011;63523;51.880;12.630;2023-01-29T01:52:32;8.35;;;2.65;;
74967;SDS011;63523;51.880;12.630;2023-01-29T01:55:04;7.63;;;2.50;;
74967;SDS011;63523;51.880;12.630;2023-01-29T01:57:31;6.45;;;2.60;;
74967;SDS011;63523;51.880;12.630;2023-01-29T01:59:58;7.70;;;2.60;;
74967;SDS011;63523;51.880;12.630;2023-01-29T02:02:38;7.47;;;2.38;;
74967;SDS011;63523;51.880;12.630;2023-01-29T02:05:26;6.80;;;2.65;;
74967;SDS011;63523;51.880;12.630;2023-01-29T02:08:10;7.20;;;2.30;;
74967;SDS011;63523;51.880;12.630;2023-01-29T02:10:54;7.70;;;2.50;;
74967;SDS011;63523;51.880;12.630;2023-01-29T02:13:20;6.97;;;2.50;;
74967;SDS011;63523;51.880;12.630;2023-01-29T02:15:47;7.55;;;2.58;;
74967;SDS011;63523;51.880;12.630;2023-01-29T02:18:13;7.50;;;2.63;;
74967;SDS011;63523;51.880;12.630;2023-01-29T02:29:43;8.65;;;2.45;;
74967;SDS011;63523;51.880;12.630;2023-01-29T02:35:26;7.28;;;2.70;;
74967;SDS011;63523;51.880;12.630;2023-01-29T02:37:58;7.35;;;2.40;;
74967;SDS011;63523;51.880;12.630;2023-01-29T02:46:00;8.00;;;2.70;;
74967;SDS011;63523;51.880;12.630;2023-01-29T02:48:44;7.90;;;2.63;;
74967;SDS011;63523;51.880;12.630;2023-01-29T02:51:20;7.32;;;2.58;;
74967;SDS011;63523;51.880;12.630;2023-01-29T02:53:56;7.20;;;2.65;;
74967;SDS011;63523;51.880;12.630;2023-01-29T02:56:31;8.43;;;2.70;;
74967;SDS011;63523;51.880;12.630;2023-01-29T02:58:59;8.45;;;2.92;;
74967;SDS011;63523;51.880;12.630;2023-01-29T03:01:30;7.88;;;2.80;;
74967;SDS011;63523;51.880;12.630;2023-01-29T03:04:00;8.23;;;2.72;;
74967;SDS011;63523;51.880;12.630;2023-01-29T03:06:34;7.35;;;2.80;;
74967;SDS011;63523;51.880;12.630;2023-01-29T03:09:06;8.23;;;2.65;;
74967;SDS011;63523;51.880;12.630;2023-01-29T03:11:53;7.13;;;2.63;;
74967;SDS011;63523;51.880;12.630;2023-01-29T03:14:34;7.45;;;2.78;;
74967;SDS011;63523;51.880;12.630;2023-01-29T03:17:25;7.82;;;3.08;;
74967;SDS011;63523;51.880;12.630;2023-01-29T03:19:56;9.77;;;3.00;;
74967;SDS011;63523;51.880;12.630;2023-01-29T03:22:22;7.50;;;3.03;;
74967;SDS011;63523;51.880;12.630;2023-01-29T03:24:49;8.45;;;3.15;;
74967;SDS011;63523;51.880;12.630;2023-01-29T03:30:32;7.45;;;2.88;;
74967;SDS011;63523;51.880;12.630;2023-01-29T03:33:20;7.17;;;2.80;;
74967;SDS011;63523;51.880;12.630;2023-01-29T03:35:52;9.38;;;2.72;;
74967;SDS011;63523;51.880;12.630;2023-01-29T03:38:24;8.05;;;3.15;;
74967;SDS011;63523;51.880;12.630;2023-01-29T03:40:57;7.15;;;3.05;;
74967;SDS011;63523;51.880;12.630;2023-01-29T03:46:05;8.73;;;3.00;;
74967;SDS011;63523;51.880;12.630;2023-01-29T03:51:27;10.05;;;3.45;;
74967;SDS011;63523;51.880;12.630;2023-01-29T04:02:41;8.25;;;2.90;;
74967;SDS011;63523;51.880;12.630;2023-01-29T04:05:12;8.77;;;3.38;;
74967;SDS011;63523;51.880;12.630;2023-01-29T04:07:41;10.10;;;3.10;;
74967;SDS011;63523;51.880;12.630;2023-01-29T04:10:10;9.25;;;3.30;;
74967;SDS011;63523;51.880;12.630;2023-01-29T04:12:47;7.83;;;2.97;;
74967;SDS011;63523;51.880;12.630;2023-01-29T04:15:25;10.35;;;2.95;;
74967;SDS011;63523;51.880;12.630;2023-01-29T04:17:54;8.10;;;3.20;;
74967;SDS011;63523;51.880;12.630;2023-01-29T04:20:21;8.68;;;3.10;;
74967;SDS011;63523;51.880;12.630;2023-01-29T04:22:48;8.50;;;3.00;;
74967;SDS011;63523;51.880;12.630;2023-01-29T04:25:16;8.07;;;3.40;;
74967;SDS011;63523;51.880;12.630;2023-01-29T04:30:35;8.48;;;3.28;;
74967;SDS011;63523;51.880;12.630;2023-01-29T04:48:44;10.18;;;3.72;;
74967;SDS011;63523;51.880;12.630;2023-01-29T04:54:21;10.98;;;3.60;;
74967;SDS011;63523;51.880;12.630;2023-01-29T04:57:15;10.38;;;3.58;;
74967;SDS011;63523;51.880;12.630;2023-01-29T05:00:09;9.90;;;3.75;;
74967;SDS011;63523;51.880;12.630;2023-01-29T05:02:40;10.27;;;3.42;;
74967;SDS011;63523;51.880;12.630;2023-01-29T05:05:08;10.17;;;3.83;;
74967;SDS011;63523;51.880;12.630;2023-01-29T05:07:37;10.27;;;4.40;;
74967;SDS011;63523;51.880;12.630;2023-01-29T05:10:04;11.15;;;4.35;;
74967;SDS011;63523;51.880;12.630;2023-01-29T05:12:33;11.38;;;4.18;;
74967;SDS011;63523;51.880;12.630;2023-01-29T05:15:02;11.52;;;4.20;;
74967;SDS011;63523;51.880;12.630;2023-01-29T05:17:32;11.40;;;4.07;;
74967;SDS011;63523;51.880;12.630;2023-01-29T05:19:57;9.48;;;4.07;;
74967;SDS011;63523;51.880;12.630;2023-01-29T05:22:23;12.87;;;4.70;;
74967;SDS011;63523;51.880;12.630;2023-01-29T05:24:49;11.45;;;4.53;;
74967;SDS011;63523;51.880;12.630;2023-01-29T05:27:19;12.57;;;4.50;;
74967;SDS011;63523;51.880;12.630;2023-01-29T05:30:07;12.20;;;4.82;;
74967;SDS011;63523;51.880;12.630;2023-01-29T05:32:34;11.75;;;4.72;;
74967;SDS011;63523;51.880;12.630;2023-01-29T05:34:59;12.37;;;4.87;;
74967;SDS011;63523;51.880;12.630;2023-01-29T05:37:25;12.70;;;5.03;;
74967;SDS011;63523;51.880;12.630;2023-01-29T05:39:50;12.17;;;4.90;;
74967;SDS011;63523;51.880;12.630;2023-01-29T05:42:16;15.97;;;5.33;;
74967;SDS011;63523;51.880;12.630;2023-01-29T05:44:41;13.33;;;5.07;;
74967;SDS011;63523;51.880;12.630;2023-01-29T05:47:07;13.20;;;5.18;;
74967;SDS011;63523;51.880;12.630;2023-01-29T05:49:32;13.63;;;4.97;;
74967;SDS011;63523;51.880;12.630;2023-01-29T05:52:01;13.97;;;5.60;;
74967;SDS011;63523;51.880;12.630;2023-01-29T05:54:26;15.88;;;5.53;;
74967;SDS011;63523;51.880;12.630;2023-01-29T05:56:52;13.73;;;5.23;;
74967;SDS011;63523;51.880;12.630;2023-01-29T05:59:17;13.40;;;4.90;;
74967;SDS011;63523;51.880;12.630;2023-01-29T06:01:43;13.83;;;5.60;;
74967;SDS011;63523;51.880;12.630;2023-01-29T06:04:08;14.60;;;5.97;;
74967;SDS011;63523;51.880;12.630;2023-01-29T06:06:34;14.63;;;5.90;;
74967;SDS011;63523;51.880;12.630;2023-01-29T06:08:59;14.10;;;5.50;;
74967;SDS011;63523;51.880;12.630;2023-01-29T06:11:25;14.93;;;5.87;;
74967;SDS011;63523;51.880;12.630;2023-01-29T06:13:50;17.63;;;5.60;;
74967;SDS011;63523;51.880;12.630;2023-01-29T06:16:16;14.52;;;5.65;;
74967;SDS011;63523;51.880;12.630;2023-01-29T06:18:41;12.97;;;5.03;;
74967;SDS011;63523;51.880;12.630;2023-01-29T06:21:08;14.67;;;5.93;;
74967;SDS011;63523;51.880;12.630;2023-01-29T06:23:35;18.25;;;6.68;;
74967;SDS011;63523;51.880;12.630;2023-01-29T06:26:02;14.40;;;5.85;;
74967;SDS011;63523;51.880;12.630;2023-01-29T06:28:30;16.63;;;6.13;;
74967;SDS011;63523;51.880;12.630;2023-01-29T06:30:57;14.83;;;5.83;;
74967;SDS011;63523;51.880;12.630;2023-01-29T06:33:23;16.30;;;5.80;;
74967;SDS011;63523;51.880;12.630;2023-01-29T06:35:53;15.43;;;5.97;;
74967;SDS011;63523;51.880;12.630;2023-01-29T06:38:22;17.17;;;6.50;;
74967;SDS011;63523;51.880;12.630;2023-01-29T06:40:48;18.70;;;6.72;;
74967;SDS011;63523;51.880;12.630;2023-01-29T06:43:14;17.90;;;6.97;;
74967;SDS011;63523;51.880;12.630;2023-01-29T06:45:49;15.60;;;6.50;;
74967;SDS011;63523;51.880;12.630;2023-01-29T06:48:19;19.27;;;7.78;;
74967;SDS011;63523;51.880;12.630;2023-01-29T06:50:45;16.13;;;7.13;;
74967;SDS011;63523;51.880;12.630;2023-01-29T06:53:11;18.90;;;7.60;;
74967;SDS011;63523;51.880;12.630;2023-01-29T06:55:37;18.00;;;7.47;;
74967;SDS011;63523;51.880;12.630;2023-01-29T06:58:04;16.80;;;7.00;;
74967;SDS011;63523;51.880;12.630;2023-01-29T07:00:35;19.13;;;6.60;;
74967;SDS011;63523;51.880;12.630;2023-01-29T07:03:01;18.35;;;7.13;;
74967;SDS011;63523;51.880;12.630;2023-01-29T07:05:27;21.10;;;8.70;;
74967;SDS011;63523;51.880;12.630;2023-01-29T07:07:52;20.13;;;9.20;;
74967;SDS011;63523;51.880;12.630;2023-01-29T07:10:18;22.57;;;9.60;;
74967;SDS011;63523;51.880;12.630;2023-01-29T07:12:43;17.58;;;8.00;;
74967;SDS011;63523;51.880;12.630;2023-01-29T07:15:09;18.13;;;7.40;;
74967;SDS011;63523;51.880;12.630;2023-01-29T07:17:36;17.02;;;6.90;;
74967;SDS011;63523;51.880;12.630;2023-01-29T07:20:02;17.23;;;6.82;;
74967;SDS011;63523;51.880;12.630;2023-01-29T07:22:29;17.90;;;6.90;;
74967;SDS011;63523;51.880;12.630;2023-01-29T07:24:55;17.90;;;7.65;;
74967;SDS011;63523;51.880;12.630;2023-01-29T07:27:21;19.30;;;7.50;;
74967;SDS011;63523;51.880;12.630;2023-01-29T07:29:46;18.80;;;6.85;;
74967;SDS011;63523;51.880;12.630;2023-01-29T07:32:12;17.27;;;6.70;;
74967;SDS011;63523;51.880;12.630;2023-01-29T07:34:37;21.33;;;7.60;;
74967;SDS011;63523;51.880;12.630;2023-01-29T07:37:02;18.70;;;7.73;;
74967;SDS011;63523;51.880;12.630;2023-01-29T07:39:30;16.05;;;7.28;;
74967;SDS011;63523;51.880;12.630;2023-01-29T07:41:56;16.05;;;7.00;;
74967;SDS011;63523;51.880;12.630;2023-01-29T07:44:21;16.13;;;6.43;;
74967;SDS011;63523;51.880;12.630;2023-01-29T07:46:47;18.35;;;7.30;;
74967;SDS011;63523;51.880;12.630;2023-01-29T07:49:12;16.73;;;7.10;;
74967;SDS011;63523;51.880;12.630;2023-01-29T07:51:38;19.93;;;7.87;;
74967;SDS011;63523;51.880;12.630;2023-01-29T07:54:03;19.00;;;7.60;;
74967;SDS011;63523;51.880;12.630;2023-01-29T07:56:29;18.83;;;7.63;;
74967;SDS011;63523;51.880;12.630;2023-01-29T07:58:54;16.00;;;6.47;;
74967;SDS011;63523;51.880;12.630;2023-01-29T08:01:20;20.13;;;7.00;;
74967;SDS011;63523;51.880;12.630;2023-01-29T08:03:45;15.60;;;6.65;;
74967;SDS011;63523;51.880;12.630;2023-01-29T08:06:11;13.80;;;5.97;;
74967;SDS011;63523;51.880;12.630;2023-01-29T08:08:36;17.03;;;6.47;;
74967;SDS011;63523;51.880;12.630;2023-01-29T08:11:02;17.15;;;7.22;;
74967;SDS011;63523;51.880;12.630;2023-01-29T08:13:29;20.13;;;7.03;;
74967;SDS011;63523;51.880;12.630;2023-01-29T08:16:00;21.05;;;7.07;;
74967;SDS011;63523;51.880;12.630;2023-01-29T08:18:26;16.60;;;7.10;;
74967;SDS011;63523;51.880;12.630;2023-01-29T08:20:51;20.20;;;7.50;;
74967;SDS011;63523;51.880;12.630;2023-01-29T08:23:17;16.42;;;6.50;;
74967;SDS011;63523;51.880;12.630;2023-01-29T08:25:43;17.10;;;7.07;;
74967;SDS011;63523;51.880;12.630;2023-01-29T08:28:08;18.33;;;7.03;;
74967;SDS011;63523;51.880;12.630;2023-01-29T08:30:36;16.52;;;6.47;;
74967;SDS011;63523;51.880;12.630;2023-01-29T08:33:02;14.27;;;6.13;;
74967;SDS011;63523;51.880;12.630;2023-01-29T08:35:28;17.27;;;6.85;;
74967;SDS011;63523;51.880;12.630;2023-01-29T08:37:54;17.65;;;6.70;;
74967;SDS011;63523;51.880;12.630;2023-01-29T08:40:24;20.37;;;8.03;;
74967;SDS011;63523;51.880;12.630;2023-01-29T08:42:50;17.25;;;6.95;;
74967;SDS011;63523;51.880;12.630;2023-01-29T08:45:16;18.10;;;6.90;;
74967;SDS011;63523;51.880;12.630;2023-01-29T08:47:45;17.67;;;6.63;;
74967;SDS011;63523;51.880;12.630;2023-01-29T08:50:12;18.58;;;7.10;;
74967;SDS011;63523;51.880;12.630;2023-01-29T08:52:38;17.60;;;7.27;;
74967;SDS011;63523;51.880;12.630;2023-01-29T08:55:03;18.33;;;7.22;;
74967;SDS011;63523;51.880;12.630;2023-01-29T08:57:29;16.73;;;6.77;;
74967;SDS011;63523;51.880;12.630;2023-01-29T08:59:54;17.88;;;6.70;;
74967;SDS011;63523;51.880;12.630;2023-01-29T09:02:20;18.17;;;7.57;;
74967;SDS011;63523;51.880;12.630;2023-01-29T09:04:45;19.47;;;7.10;;
74967;SDS011;63523;51.880;12.630;2023-01-29T09:07:11;19.80;;;7.57;;
74967;SDS011;63523;51.880;12.630;2023-01-29T09:09:36;16.92;;;6.97;;
74967;SDS011;63523;51.880;12.630;2023-01-29T09:12:02;19.43;;;7.73;;
74967;SDS011;63523;51.880;12.630;2023-01-29T09:14:28;18.95;;;7.35;;
74967;SDS011;63523;51.880;12.630;2023-01-29T09:16:53;19.70;;;7.50;;
74967;SDS011;63523;51.880;12.630;2023-01-29T09:19:18;21.90;;;8.63;;
74967;SDS011;63523;51.880;12.630;2023-01-29T09:21:44;19.13;;;7.23;;
74967;SDS011;63523;51.880;12.630;2023-01-29T09:24:09;17.63;;;6.82;;
74967;SDS011;63523;51.880;12.630;2023-01-29T09:26:35;18.07;;;6.93;;
74967;SDS011;63523;51.880;12.630;2023-01-29T09:29:00;18.60;;;7.17;;
74967;SDS011;63523;51.880;12.630;2023-01-29T09:31:26;20.33;;;7.80;;
74967;SDS011;63523;51.880;12.630;2023-01-29T09:33:51;18.73;;;8.63;;
74967;SDS011;63523;51.880;12.630;2023-01-29T09:36:17;20.87;;;8.53;;
74967;SDS011;63523;51.880;12.630;2023-01-29T09:38:42;21.77;;;9.43;;
74967;SDS011;63523;51.880;12.630;2023-01-29T09:41:15;23.60;;;9.95;;
74967;SDS011;63523;51.880;12.630;2023-01-29T09:43:59;22.42;;;8.63;;
74967;SDS011;63523;51.880;12.630;2023-01-29T09:46:34;20.42;;;8.32;;
74967;SDS011;63523;51.880;12.630;2023-01-29T09:49:24;19.15;;;7.85;;
74967;SDS011;63523;51.880;12.630;2023-01-29T09:51:55;20.65;;;8.38;;
74967;SDS011;63523;51.880;12.630;2023-01-29T09:54:29;20.15;;;7.70;;
74967;SDS011;63523;51.880;12.630;2023-01-29T09:57:27;18.75;;;7.32;;
74967;SDS011;63523;51.880;12.630;2023-01-29T10:00:14;21.50;;;8.20;;
74967;SDS011;63523;51.880;12.630;2023-01-29T10:08:46;18.65;;;7.55;;
74967;SDS011;63523;51.880;12.630;2023-01-29T10:17:00;21.55;;;8.25;;
74967;SDS011;63523;51.880;12.630;2023-01-29T10:25:13;20.73;;;7.85;;
74967;SDS011;63523;51.880;12.630;2023-01-29T10:27:44;21.80;;;7.50;;
74967;SDS011;63523;51.880;12.630;2023-01-29T10:30:22;19.45;;;8.32;;
74967;SDS011;63523;51.880;12.630;2023-01-29T10:33:02;21.50;;;8.32;;
74967;SDS011;63523;51.880;12.630;2023-01-29T10:35:40;19.90;;;8.23;;
74967;SDS011;63523;51.880;12.630;2023-01-29T10:38:20;19.30;;;7.10;;
74967;SDS011;63523;51.880;12.630;2023-01-29T10:54:23;21.27;;;8.17;;
74967;SDS011;63523;51.880;12.630;2023-01-29T11:02:15;21.83;;;8.20;;
74967;SDS011;63523;51.880;12.630;2023-01-29T11:04:43;21.52;;;7.63;;
74967;SDS011;63523;51.880;12.630;2023-01-29T11:07:10;22.17;;;8.23;;
74967;SDS011;63523;51.880;12.630;2023-01-29T11:09:45;19.55;;;7.93;;
74967;SDS011;63523;51.880;12.630;2023-01-29T11:12:22;21.20;;;8.82;;
74967;SDS011;63523;51.880;12.630;2023-01-29T11:17:38;21.25;;;8.73;;
74967;SDS011;63523;51.880;12.630;2023-01-29T11:20:24;19.37;;;7.73;;
74967;SDS011;63523;51.880;12.630;2023-01-29T11:22:52;21.25;;;8.43;;
74967;SDS011;63523;51.880;12.630;2023-01-29T11:25:22;18.95;;;8.13;;
74967;SDS011;63523;51.880;12.630;2023-01-29T11:27:53;19.45;;;7.47;;
74967;SDS011;63523;51.880;12.630;2023-01-29T11:30:32;19.35;;;7.90;;
74967;SDS011;63523;51.880;12.630;2023-01-29T11:35:42;18.65;;;7.60;;
74967;SDS011;63523;51.880;12.630;2023-01-29T11:38:17;17.13;;;6.80;;
74967;SDS011;63523;51.880;12.630;2023-01-29T11:40:47;20.98;;;7.32;;
74967;SDS011;63523;51.880;12.630;2023-01-29T11:45:59;21.25;;;8.57;;
74967;SDS011;63523;51.880;12.630;2023-01-29T11:48:32;19.33;;;7.78;;
74967;SDS011;63523;51.880;12.630;2023-01-29T11:51:04;16.73;;;6.70;;
74967;SDS011;63523;51.880;12.630;2023-01-29T11:53:44;18.23;;;7.55;;
74967;SDS011;63523;51.880;12.630;2023-01-29T11:56:26;19.98;;;7.22;;
74967;SDS011;63523;51.880;12.630;2023-01-29T12:01:50;20.00;;;8.60;;
74967;SDS011;63523;51.880;12.630;2023-01-29T12:04:20;18.50;;;7.20;;
74967;SDS011;63523;51.880;12.630;2023-01-29T12:06:49;18.38;;;7.10;;
74967;SDS011;63523;51.880;12.630;2023-01-29T12:09:18;19.83;;;7.60;;
74967;SDS011;63523;51.880;12.630;2023-01-29T12:11:51;17.23;;;6.60;;
74967;SDS011;63523;51.880;12.630;2023-01-29T12:14:30;18.80;;;7.18;;
74967;SDS011;63523;51.880;12.630;2023-01-29T12:22:13;18.27;;;7.53;;
74967;SDS011;63523;51.880;12.630;2023-01-29T12:24:48;19.67;;;7.00;;
74967;SDS011;63523;51.880;12.630;2023-01-29T12:27:21;19.77;;;7.90;;
74967;SDS011;63523;51.880;12.630;2023-01-29T12:35:22;19.63;;;7.43;;
74967;SDS011;63523;51.880;12.630;2023-01-29T12:43:16;18.35;;;6.55;;
74967;SDS011;63523;51.880;12.630;2023-01-29T12:45:47;17.73;;;6.60;;
74967;SDS011;63523;51.880;12.630;2023-01-29T12:48:22;17.23;;;6.78;;
74967;SDS011;63523;51.880;12.630;2023-01-29T12:50:51;18.38;;;6.68;;
74967;SDS011;63523;51.880;12.630;2023-01-29T12:53:28;18.58;;;6.78;;
74967;SDS011;63523;51.880;12.630;2023-01-29T12:56:00;18.33;;;7.20;;
74967;SDS011;63523;51.880;12.630;2023-01-29T13:01:02;17.23;;;6.72;;
74967;SDS011;63523;51.880;12.630;2023-01-29T13:03:44;18.55;;;7.38;;
74967;SDS011;63523;51.880;12.630;2023-01-29T13:06:35;19.05;;;6.70;;
74967;SDS011;63523;51.880;12.630;2023-01-29T13:09:16;18.80;;;7.50;;
74967;SDS011;63523;51.880;12.630;2023-01-29T13:11:53;18.60;;;7.23;;
74967;SDS011;63523;51.880;12.630;2023-01-29T13:14:27;19.58;;;6.57;;
74967;SDS011;63523;51.880;12.630;2023-01-29T13:20:27;18.88;;;7.35;;
74967;SDS011;63523;51.880;12.630;2023-01-29T13:22:57;18.48;;;6.72;;
74967;SDS011;63523;51.880;12.630;2023-01-29T13:25:28;15.97;;;6.07;;
74967;SDS011;63523;51.880;12.630;2023-01-29T13:27:54;15.65;;;5.75;;
74967;SDS011;63523;51.880;12.630;2023-01-29T13:30:37;16.77;;;6.47;;
74967;SDS011;63523;51.880;12.630;2023-01-29T13:33:03;16.20;;;6.80;;
74967;SDS011;63523;51.880;12.630;2023-01-29T13:35:36;16.65;;;6.63;;
74967;SDS011;63523;51.880;12.630;2023-01-29T13:38:19;19.10;;;7.50;;
74967;SDS011;63523;51.880;12.630;2023-01-29T13:40:49;20.15;;;7.30;;
74967;SDS011;63523;51.880;12.630;2023-01-29T13:43:19;19.20;;;7.50;;
74967;SDS011;63523;51.880;12.630;2023-01-29T13:45:46;19.63;;;7.30;;
74967;SDS011;63523;51.880;12.630;2023-01-29T13:51:00;17.53;;;6.53;;
74967;SDS011;63523;51.880;12.630;2023-01-29T13:53:34;20.50;;;7.50;;
74967;SDS011;63523;51.880;12.630;2023-01-29T13:59:05;20.58;;;7.38;;
74967;SDS011;63523;51.880;12.630;2023-01-29T14:10:00;18.38;;;7.28;;
74967;SDS011;63523;51.880;12.630;2023-01-29T14:12:37;22.38;;;8.77;;
74967;SDS011;63523;51.880;12.630;2023-01-29T14:15:13;20.58;;;8.20;;
74967;SDS011;63523;51.880;12.630;2023-01-29T14:36:40;20.58;;;7.70;;
74967;SDS011;63523;51.880;12.630;2023-01-29T14:39:18;18.42;;;7.22;;
74967;SDS011;63523;51.880;12.630;2023-01-29T14:41:48;19.02;;;7.05;;
74967;SDS011;63523;51.880;12.630;2023-01-29T14:49:53;21.73;;;7.72;;
74967;SDS011;63523;51.880;12.630;2023-01-29T14:52:37;17.05;;;7.40;;
74967;SDS011;63523;51.880;12.630;2023-01-29T14:55:06;19.65;;;7.07;;
74967;SDS011;63523;51.880;12.630;2023-01-29T14:57:39;18.47;;;7.33;;
74967;SDS011;63523;51.880;12.630;2023-01-29T15:00:13;17.60;;;7.03;;
74967;SDS011;63523;51.880;12.630;2023-01-29T15:02:44;18.60;;;7.18;;
74967;SDS011;63523;51.880;12.630;2023-01-29T15:05:10;20.33;;;7.20;;
74967;SDS011;63523;51.880;12.630;2023-01-29T15:13:29;20.55;;;8.30;;
74967;SDS011;63523;51.880;12.630;2023-01-29T15:16:08;20.95;;;7.85;;
74967;SDS011;63523;51.880;12.630;2023-01-29T15:18:40;19.00;;;7.10;;
74967;SDS011;63523;51.880;12.630;2023-01-29T15:21:14;20.42;;;8.05;;
74967;SDS011;63523;51.880;12.630;2023-01-29T15:23:43;23.05;;;8.57;;
74967;SDS011;63523;51.880;12.630;2023-01-29T15:26:18;20.92;;;7.68;;
74967;SDS011;63523;51.880;12.630;2023-01-29T15:28:53;20.13;;;7.88;;
74967;SDS011;63523;51.880;12.630;2023-01-29T15:31:25;20.00;;;8.37;;
74967;SDS011;63523;51.880;12.630;2023-01-29T15:33:52;19.75;;;7.88;;
74967;SDS011;63523;51.880;12.630;2023-01-29T15:36:23;22.70;;;9.25;;
74967;SDS011;63523;51.880;12.630;2023-01-29T15:41:42;17.52;;;6.97;;
74967;SDS011;63523;51.880;12.630;2023-01-29T15:44:16;22.90;;;8.73;;
74967;SDS011;63523;51.880;12.630;2023-01-29T15:46:44;22.35;;;8.90;;
74967;SDS011;63523;51.880;12.630;2023-01-29T15:49:38;18.02;;;7.53;;
74967;SDS011;63523;51.880;12.630;2023-01-29T15:52:07;21.02;;;8.70;;
74967;SDS011;63523;51.880;12.630;2023-01-29T15:54:47;18.48;;;7.32;;
74967;SDS011;63523;51.880;12.630;2023-01-29T15:57:20;23.07;;;7.97;;
74967;SDS011;63523;51.880;12.630;2023-01-29T15:59:48;23.38;;;8.05;;
74967;SDS011;63523;51.880;12.630;2023-01-29T16:04:54;23.13;;;9.25;;
74967;SDS011;63523;51.880;12.630;2023-01-29T16:07:20;22.67;;;8.27;;
74967;SDS011;63523;51.880;12.630;2023-01-29T16:09:46;20.17;;;7.60;;
74967;SDS011;63523;51.880;12.630;2023-01-29T16:12:13;19.88;;;7.50;;
74967;SDS011;63523;51.880;12.630;2023-01-29T16:14:39;19.07;;;7.33;;
74967;SDS011;63523;51.880;12.630;2023-01-29T16:20:03;20.70;;;8.07;;
74967;SDS011;63523;51.880;12.630;2023-01-29T16:22:32;19.83;;;6.97;;
74967;SDS011;63523;51.880;12.630;2023-01-29T16:25:06;21.63;;;7.75;;
74967;SDS011;63523;51.880;12.630;2023-01-29T16:27:37;22.63;;;8.53;;
74967;SDS011;63523;51.880;12.630;2023-01-29T16:30:07;21.95;;;8.13;;
74967;SDS011;63523;51.880;12.630;2023-01-29T16:32:34;19.63;;;7.78;;
74967;SDS011;63523;51.880;12.630;2023-01-29T16:35:00;19.63;;;7.63;;
74967;SDS011;63523;51.880;12.630;2023-01-29T16:37:27;18.73;;;7.67;;
74967;SDS011;63523;51.880;12.630;2023-01-29T16:39:56;20.80;;;8.27;;
74967;SDS011;63523;51.880;12.630;2023-01-29T16:42:26;21.27;;;8.32;;
74967;SDS011;63523;51.880;12.630;2023-01-29T16:45:00;22.10;;;8.18;;
74967;SDS011;63523;51.880;12.630;2023-01-29T16:47:32;20.67;;;7.70;;
74967;SDS011;63523;51.880;12.630;2023-01-29T16:52:53;21.08;;;7.65;;
74967;SDS011;63523;51.880;12.630;2023-01-29T16:55:31;22.67;;;8.77;;
74967;SDS011;63523;51.880;12.630;2023-01-29T16:58:10;20.50;;;8.20;;
74967;SDS011;63523;51.880;12.630;2023-01-29T17:01:20;19.13;;;7.20;;
74967;SDS011;63523;51.880;12.630;2023-01-29T17:03:38;18.45;;;7.70;;
74967;SDS011;63523;51.880;12.630;2023-01-29T17:06:26;19.63;;;8.05;;
74967;SDS011;63523;51.880;12.630;2023-01-29T17:08:51;18.38;;;8.27;;
74967;SDS011;63523;51.880;12.630;2023-01-29T17:11:29;22.10;;;8.20;;
74967;SDS011;63523;51.880;12.630;2023-01-29T17:14:00;22.33;;;8.73;;
74967;SDS011;63523;51.880;12.630;2023-01-29T17:16:30;22.13;;;8.52;;
74967;SDS011;63523;51.880;12.630;2023-01-29T17:18:57;22.40;;;7.70;;
74967;SDS011;63523;51.880;12.630;2023-01-29T17:21:24;18.58;;;7.53;;
74967;SDS011;63523;51.880;12.630;2023-01-29T17:23:49;16.73;;;7.63;;
74967;SDS011;63523;51.880;12.630;2023-01-29T17:26:15;19.40;;;7.53;;
74967;SDS011;63523;51.880;12.630;2023-01-29T17:28:42;18.00;;;7.32;;
74967;SDS011;63523;51.880;12.630;2023-01-29T17:31:08;16.75;;;6.07;;
74967;SDS011;63523;51.880;12.630;2023-01-29T17:33:34;18.17;;;7.07;;
74967;SDS011;63523;51.880;12.630;2023-01-29T17:36:01;18.15;;;7.45;;
74967;SDS011;63523;51.880;12.630;2023-01-29T17:38:27;17.33;;;7.23;;
74967;SDS011;63523;51.880;12.630;2023-01-29T17:43:24;17.27;;;6.70;;
74967;SDS011;63523;51.880;12.630;2023-01-29T17:45:49;18.85;;;6.65;;
74967;SDS011;63523;51.880;12.630;2023-01-29T17:48:28;16.63;;;6.37;;